sensor_id;sensor_type;location;lat;lon;timestamp;temperature;humidity
1994;DHT22;998;49.906;10.908;2022-10-16T00:01:20;15.90;99.90
1994;DHT22;998;49.906;10.908;2022-10-16T00:03:48;15.90;99.90
1994;DHT22;998;49.906;10.908;2022-10-16T00:06:18;15.80;99.90
1994;DHT22;998;49.906;10.908;2022-10-16T00:08:46;15.80;99.90
1994;DHT22;998;49.906;10.908;2022-10-16T00:11:18;15.80;99.90
1994;DHT22;998;49.906;10.908;2022-10-16T00:13:47;15.80;99.90
1994;DHT22;998;49.906;10.908;2022-10-16T00:16:16;15.80;99.90
1994;DHT22;998;49.906;10.908;2022-10-16T00:18:43;15.80;99.90
1994;DHT22;998;49.906;10.908;2022-10-16T00:21:12;15.80;99.90
1994;DHT22;998;49.906;10.908;2022-10-16T00:23:40;15.80;99.90
1994;DHT22;998;49.906;10.908;2022-10-16T00:26:09;15.80;99.90
1994;DHT22;998;49.906;10.908;2022-10-16T00:28:39;15.80;99.90
1994;DHT22;998;49.906;10.908;2022-10-16T00:31:08;15.80;99.90
1994;DHT22;998;49.906;10.908;2022-10-16T00:33:37;15.80;99.90
1994;DHT22;998;49.906;10.908;2022-10-16T00:36:06;15.80;99.90
1994;DHT22;998;49.906;10.908;2022-10-16T00:38:34;15.80;99.90
1994;DHT22;998;49.906;10.908;2022-10-16T00:41:01;15.80;99.90
1994;DHT22;998;49.906;10.908;2022-10-16T00:43:40;15.90;99.90
1994;DHT22;998;49.906;10.908;2022-10-16T00:46:13;15.90;99.90
1994;DHT22;998;49.906;10.908;2022-10-16T00:48:45;15.90;99.90
1994;DHT22;998;49.906;10.908;2022-10-16T00:51:14;15.80;99.90
1994;DHT22;998;49.906;10.908;2022-10-16T00:53:41;15.80;99.90
1994;DHT22;998;49.906;10.908;2022-10-16T00:56:09;15.80;99.90
1994;DHT22;998;49.906;10.908;2022-10-16T00:58:36;15.90;99.90
1994;DHT22;998;49.906;10.908;2022-10-16T01:01:05;15.80;99.90
1994;DHT22;998;49.906;10.908;2022-10-16T01:03:34;15.90;99.90
1994;DHT22;998;49.906;10.908;2022-10-16T01:06:11;16.00;99.90
1994;DHT22;998;49.906;10.908;2022-10-16T01:08:50;16.00;99.90
1994;DHT22;998;49.906;10.908;2022-10-16T01:11:24;16.00;99.90
1994;DHT22;998;49.906;10.908;2022-10-16T01:13:55;16.10;99.90
1994;DHT22;998;49.906;10.908;2022-10-16T01:16:31;16.10;99.90
1994;DHT22;998;49.906;10.908;2022-10-16T01:19:08;16.00;99.90
1994;DHT22;998;49.906;10.908;2022-10-16T01:21:40;16.00;99.90
1994;DHT22;998;49.906;10.908;2022-10-16T01:24:17;16.10;99.90
1994;DHT22;998;49.906;10.908;2022-10-16T01:27:04;16.00;99.90
1994;DHT22;998;49.906;10.908;2022-10-16T01:29:36;16.00;99.90
1994;DHT22;998;49.906;10.908;2022-10-16T01:32:13;16.00;99.90
1994;DHT22;998;49.906;10.908;2022-10-16T01:34:46;16.00;99.90
1994;DHT22;998;49.906;10.908;2022-10-16T01:37:18;16.00;99.90
1994;DHT22;998;49.906;10.908;2022-10-16T01:39:49;16.00;99.90
1994;DHT22;998;49.906;10.908;2022-10-16T01:42:21;16.00;99.90
1994;DHT22;998;49.906;10.908;2022-10-16T01:44:51;16.00;99.90
1994;DHT22;998;49.906;10.908;2022-10-16T01:47:21;15.90;99.90
1994;DHT22;998;49.906;10.908;2022-10-16T01:49:49;16.00;99.90
1994;DHT22;998;49.906;10.908;2022-10-16T01:52:20;15.90;99.90
1994;DHT22;998;49.906;10.908;2022-10-16T01:54:50;15.90;99.90
1994;DHT22;998;49.906;10.908;2022-10-16T01:57:20;15.80;99.90
1994;DHT22;998;49.906;10.908;2022-10-16T01:59:51;15.80;99.90
1994;DHT22;998;49.906;10.908;2022-10-16T02:02:21;15.70;99.90
1994;DHT22;998;49.906;10.908;2022-10-16T02:04:55;15.70;99.90
1994;DHT22;998;49.906;10.908;2022-10-16T02:07:24;15.70;99.90
1994;DHT22;998;49.906;10.908;2022-10-16T02:09:52;15.70;99.90
1994;DHT22;998;49.906;10.908;2022-10-16T02:12:25;15.70;99.90
1994;DHT22;998;49.906;10.908;2022-10-16T02:14:53;15.70;99.90
1994;DHT22;998;49.906;10.908;2022-10-16T02:17:21;15.60;99.90
1994;DHT22;998;49.906;10.908;2022-10-16T02:19:50;15.60;99.90
1994;DHT22;998;49.906;10.908;2022-10-16T02:22:24;15.70;99.90
1994;DHT22;998;49.906;10.908;2022-10-16T02:24:56;15.70;99.90
1994;DHT22;998;49.906;10.908;2022-10-16T02:27:29;15.70;99.90
1994;DHT22;998;49.906;10.908;2022-10-16T02:30:05;15.70;99.90
1994;DHT22;998;49.906;10.908;2022-10-16T02:32:36;15.70;99.90
1994;DHT22;998;49.906;10.908;2022-10-16T02:35:07;15.70;99.90
1994;DHT22;998;49.906;10.908;2022-10-16T02:37:35;15.70;99.90
1994;DHT22;998;49.906;10.908;2022-10-16T02:40:04;15.70;99.90
1994;DHT22;998;49.906;10.908;2022-10-16T02:42:35;15.70;99.90
1994;DHT22;998;49.906;10.908;2022-10-16T02:45:04;15.70;99.90
1994;DHT22;998;49.906;10.908;2022-10-16T02:47:32;15.70;99.90
1994;DHT22;998;49.906;10.908;2022-10-16T02:49:59;15.70;99.90
1994;DHT22;998;49.906;10.908;2022-10-16T02:52:27;15.70;99.90
1994;DHT22;998;49.906;10.908;2022-10-16T02:54:54;15.70;99.90
1994;DHT22;998;49.906;10.908;2022-10-16T02:57:22;15.70;99.90
1994;DHT22;998;49.906;10.908;2022-10-16T02:59:51;15.70;99.90
1994;DHT22;998;49.906;10.908;2022-10-16T03:02:18;15.80;99.90
1994;DHT22;998;49.906;10.908;2022-10-16T03:04:46;15.80;99.90
1994;DHT22;998;49.906;10.908;2022-10-16T03:07:13;15.80;99.90
1994;DHT22;998;49.906;10.908;2022-10-16T03:09:40;15.80;99.90
1994;DHT22;998;49.906;10.908;2022-10-16T03:12:08;15.80;99.90
1994;DHT22;998;49.906;10.908;2022-10-16T03:14:37;15.80;99.90
1994;DHT22;998;49.906;10.908;2022-10-16T03:17:07;15.80;99.90
1994;DHT22;998;49.906;10.908;2022-10-16T03:19:35;15.80;99.90
1994;DHT22;998;49.906;10.908;2022-10-16T03:22:02;15.80;99.90
1994;DHT22;998;49.906;10.908;2022-10-16T03:24:29;15.80;99.90
1994;DHT22;998;49.906;10.908;2022-10-16T03:26:57;15.80;99.90
1994;DHT22;998;49.906;10.908;2022-10-16T03:29:24;15.80;99.90
1994;DHT22;998;49.906;10.908;2022-10-16T03:31:53;15.80;99.90
1994;DHT22;998;49.906;10.908;2022-10-16T03:34:22;15.80;99.90
1994;DHT22;998;49.906;10.908;2022-10-16T03:36:50;15.80;99.90
1994;DHT22;998;49.906;10.908;2022-10-16T03:39:19;15.80;99.90
1994;DHT22;998;49.906;10.908;2022-10-16T03:41:46;15.90;99.90
1994;DHT22;998;49.906;10.908;2022-10-16T03:44:13;15.80;99.90
1994;DHT22;998;49.906;10.908;2022-10-16T03:46:40;15.80;99.90
1994;DHT22;998;49.906;10.908;2022-10-16T03:49:08;15.90;99.90
1994;DHT22;998;49.906;10.908;2022-10-16T03:51:37;15.90;99.90
1994;DHT22;998;49.906;10.908;2022-10-16T03:54:04;15.90;99.90
1994;DHT22;998;49.906;10.908;2022-10-16T03:56:31;15.90;99.90
1994;DHT22;998;49.906;10.908;2022-10-16T03:58:59;15.90;99.90
1994;DHT22;998;49.906;10.908;2022-10-16T04:01:26;15.90;99.90
1994;DHT22;998;49.906;10.908;2022-10-16T04:03:53;15.90;99.90
1994;DHT22;998;49.906;10.908;2022-10-16T04:06:21;15.90;99.90
1994;DHT22;998;49.906;10.908;2022-10-16T04:08:50;15.80;99.90
1994;DHT22;998;49.906;10.908;2022-10-16T04:11:17;15.80;99.90
1994;DHT22;998;49.906;10.908;2022-10-16T04:13:44;15.80;99.90
1994;DHT22;998;49.906;10.908;2022-10-16T04:16:12;15.80;99.90
1994;DHT22;998;49.906;10.908;2022-10-16T04:18:39;15.90;99.90
1994;DHT22;998;49.906;10.908;2022-10-16T04:21:07;15.80;99.90
1994;DHT22;998;49.906;10.908;2022-10-16T04:23:34;15.80;99.90
1994;DHT22;998;49.906;10.908;2022-10-16T04:26:03;15.90;99.90
1994;DHT22;998;49.906;10.908;2022-10-16T04:28:30;15.80;99.90
1994;DHT22;998;49.906;10.908;2022-10-16T04:30:58;15.90;99.90
1994;DHT22;998;49.906;10.908;2022-10-16T04:33:25;15.90;99.90
1994;DHT22;998;49.906;10.908;2022-10-16T04:36:03;15.80;99.90
1994;DHT22;998;49.906;10.908;2022-10-16T04:38:30;15.80;99.90
1994;DHT22;998;49.906;10.908;2022-10-16T04:40:58;15.80;99.90
1994;DHT22;998;49.906;10.908;2022-10-16T04:43:27;15.80;99.90
1994;DHT22;998;49.906;10.908;2022-10-16T04:45:54;15.80;99.90
1994;DHT22;998;49.906;10.908;2022-10-16T04:48:22;15.80;99.90
1994;DHT22;998;49.906;10.908;2022-10-16T04:50:49;15.80;99.90
1994;DHT22;998;49.906;10.908;2022-10-16T04:53:17;15.80;99.90
1994;DHT22;998;49.906;10.908;2022-10-16T04:55:44;15.80;99.90
1994;DHT22;998;49.906;10.908;2022-10-16T04:58:11;15.80;99.90
1994;DHT22;998;49.906;10.908;2022-10-16T05:00:40;15.80;99.90
1994;DHT22;998;49.906;10.908;2022-10-16T05:03:08;15.80;99.90
1994;DHT22;998;49.906;10.908;2022-10-16T05:05:35;15.80;99.90
1994;DHT22;998;49.906;10.908;2022-10-16T05:08:03;15.80;99.90
1994;DHT22;998;49.906;10.908;2022-10-16T05:10:31;15.80;99.90
1994;DHT22;998;49.906;10.908;2022-10-16T05:12:58;15.80;99.90
1994;DHT22;998;49.906;10.908;2022-10-16T05:15:26;15.80;99.90
1994;DHT22;998;49.906;10.908;2022-10-16T05:17:56;15.80;99.90
1994;DHT22;998;49.906;10.908;2022-10-16T05:20:23;15.70;99.90
1994;DHT22;998;49.906;10.908;2022-10-16T05:22:51;15.80;99.90
1994;DHT22;998;49.906;10.908;2022-10-16T05:25:18;15.80;99.90
1994;DHT22;998;49.906;10.908;2022-10-16T05:27:47;15.70;99.90
1994;DHT22;998;49.906;10.908;2022-10-16T05:30:15;15.70;99.90
1994;DHT22;998;49.906;10.908;2022-10-16T05:32:46;15.70;99.90
1994;DHT22;998;49.906;10.908;2022-10-16T05:35:16;15.70;99.90
1994;DHT22;998;49.906;10.908;2022-10-16T05:37:44;15.70;99.90
1994;DHT22;998;49.906;10.908;2022-10-16T05:40:12;15.70;99.90
1994;DHT22;998;49.906;10.908;2022-10-16T05:42:40;15.70;99.90
1994;DHT22;998;49.906;10.908;2022-10-16T05:45:10;15.70;99.90
1994;DHT22;998;49.906;10.908;2022-10-16T05:47:38;15.70;99.90
1994;DHT22;998;49.906;10.908;2022-10-16T05:50:05;15.70;99.90
1994;DHT22;998;49.906;10.908;2022-10-16T05:52:34;15.70;99.90
1994;DHT22;998;49.906;10.908;2022-10-16T05:55:02;15.70;99.90
1994;DHT22;998;49.906;10.908;2022-10-16T05:57:29;15.70;99.90
1994;DHT22;998;49.906;10.908;2022-10-16T05:59:57;15.70;99.90
1994;DHT22;998;49.906;10.908;2022-10-16T06:02:24;15.70;99.90
1994;DHT22;998;49.906;10.908;2022-10-16T06:04:52;15.70;99.90
1994;DHT22;998;49.906;10.908;2022-10-16T06:07:20;15.70;99.90
1994;DHT22;998;49.906;10.908;2022-10-16T06:09:50;15.70;99.90
1994;DHT22;998;49.906;10.908;2022-10-16T06:12:17;15.70;99.90
1994;DHT22;998;49.906;10.908;2022-10-16T06:14:45;15.70;99.90
1994;DHT22;998;49.906;10.908;2022-10-16T06:17:13;15.70;99.90
1994;DHT22;998;49.906;10.908;2022-10-16T06:19:41;15.80;99.90
1994;DHT22;998;49.906;10.908;2022-10-16T06:22:08;15.80;99.90
1994;DHT22;998;49.906;10.908;2022-10-16T06:24:36;15.80;99.90
1994;DHT22;998;49.906;10.908;2022-10-16T06:27:05;15.80;99.90
1994;DHT22;998;49.906;10.908;2022-10-16T06:29:32;15.70;99.90
1994;DHT22;998;49.906;10.908;2022-10-16T06:32:00;15.70;99.90
1994;DHT22;998;49.906;10.908;2022-10-16T06:34:27;15.80;99.90
1994;DHT22;998;49.906;10.908;2022-10-16T06:36:54;15.70;99.90
1994;DHT22;998;49.906;10.908;2022-10-16T06:39:22;15.80;99.90
1994;DHT22;998;49.906;10.908;2022-10-16T06:41:49;15.70;99.90
1994;DHT22;998;49.906;10.908;2022-10-16T06:44:18;15.80;99.90
1994;DHT22;998;49.906;10.908;2022-10-16T06:46:45;15.80;99.90
1994;DHT22;998;49.906;10.908;2022-10-16T06:49:12;15.80;99.90
1994;DHT22;998;49.906;10.908;2022-10-16T06:51:41;15.80;99.90
1994;DHT22;998;49.906;10.908;2022-10-16T06:54:09;15.80;99.90
1994;DHT22;998;49.906;10.908;2022-10-16T06:56:36;15.80;99.90
1994;DHT22;998;49.906;10.908;2022-10-16T06:59:04;15.80;99.90
1994;DHT22;998;49.906;10.908;2022-10-16T07:01:33;15.80;99.90
1994;DHT22;998;49.906;10.908;2022-10-16T07:04:01;15.80;99.90
1994;DHT22;998;49.906;10.908;2022-10-16T07:06:31;15.80;99.90
1994;DHT22;998;49.906;10.908;2022-10-16T07:09:02;15.90;99.90
1994;DHT22;998;49.906;10.908;2022-10-16T07:11:30;15.80;99.90
1994;DHT22;998;49.906;10.908;2022-10-16T07:13:58;15.90;99.90
1994;DHT22;998;49.906;10.908;2022-10-16T07:16:26;15.90;99.90
1994;DHT22;998;49.906;10.908;2022-10-16T07:18:56;15.90;99.90
1994;DHT22;998;49.906;10.908;2022-10-16T07:21:26;15.90;99.90
1994;DHT22;998;49.906;10.908;2022-10-16T07:23:55;15.90;99.90
1994;DHT22;998;49.906;10.908;2022-10-16T07:26:24;15.90;99.90
1994;DHT22;998;49.906;10.908;2022-10-16T07:28:51;16.00;99.90
1994;DHT22;998;49.906;10.908;2022-10-16T07:31:19;16.00;99.90
1994;DHT22;998;49.906;10.908;2022-10-16T07:33:47;16.00;99.90
1994;DHT22;998;49.906;10.908;2022-10-16T07:36:17;16.00;99.90
1994;DHT22;998;49.906;10.908;2022-10-16T07:38:46;16.10;99.90
1994;DHT22;998;49.906;10.908;2022-10-16T07:41:15;16.10;99.90
1994;DHT22;998;49.906;10.908;2022-10-16T07:43:46;16.10;99.90
1994;DHT22;998;49.906;10.908;2022-10-16T07:46:14;16.10;99.90
1994;DHT22;998;49.906;10.908;2022-10-16T07:48:42;16.20;99.90
1994;DHT22;998;49.906;10.908;2022-10-16T07:51:13;16.20;99.90
1994;DHT22;998;49.906;10.908;2022-10-16T07:53:42;16.20;99.90
1994;DHT22;998;49.906;10.908;2022-10-16T07:56:09;16.20;99.90
1994;DHT22;998;49.906;10.908;2022-10-16T07:58:37;16.20;99.90
1994;DHT22;998;49.906;10.908;2022-10-16T08:01:06;16.30;99.90
1994;DHT22;998;49.906;10.908;2022-10-16T08:03:34;16.30;99.90
1994;DHT22;998;49.906;10.908;2022-10-16T08:06:02;16.30;99.90
1994;DHT22;998;49.906;10.908;2022-10-16T08:08:30;16.30;99.90
1994;DHT22;998;49.906;10.908;2022-10-16T08:10:59;16.40;99.90
1994;DHT22;998;49.906;10.908;2022-10-16T08:13:29;16.40;99.90
1994;DHT22;998;49.906;10.908;2022-10-16T08:15:56;16.40;99.90
1994;DHT22;998;49.906;10.908;2022-10-16T08:18:24;16.50;99.90
1994;DHT22;998;49.906;10.908;2022-10-16T08:20:56;16.50;99.90
1994;DHT22;998;49.906;10.908;2022-10-16T08:23:24;16.50;99.90
1994;DHT22;998;49.906;10.908;2022-10-16T08:25:53;16.60;99.90
1994;DHT22;998;49.906;10.908;2022-10-16T08:28:22;16.60;99.90
1994;DHT22;998;49.906;10.908;2022-10-16T08:30:50;16.60;99.90
1994;DHT22;998;49.906;10.908;2022-10-16T08:33:17;16.70;99.90
1994;DHT22;998;49.906;10.908;2022-10-16T08:35:51;16.60;99.90
1994;DHT22;998;49.906;10.908;2022-10-16T08:38:19;16.70;99.90
1994;DHT22;998;49.906;10.908;2022-10-16T08:40:47;16.70;99.90
1994;DHT22;998;49.906;10.908;2022-10-16T08:43:39;16.70;99.90
1994;DHT22;998;49.906;10.908;2022-10-16T08:46:20;16.70;99.90
1994;DHT22;998;49.906;10.908;2022-10-16T08:48:52;16.70;99.90
1994;DHT22;998;49.906;10.908;2022-10-16T08:51:23;16.70;99.90
1994;DHT22;998;49.906;10.908;2022-10-16T08:53:54;16.70;99.90
1994;DHT22;998;49.906;10.908;2022-10-16T08:56:23;16.70;99.90
1994;DHT22;998;49.906;10.908;2022-10-16T08:58:53;16.80;99.90
1994;DHT22;998;49.906;10.908;2022-10-16T09:01:35;16.80;99.90
1994;DHT22;998;49.906;10.908;2022-10-16T09:04:29;16.80;99.90
1994;DHT22;998;49.906;10.908;2022-10-16T09:07:04;16.80;99.90
1994;DHT22;998;49.906;10.908;2022-10-16T09:09:48;16.90;99.90
1994;DHT22;998;49.906;10.908;2022-10-16T09:12:21;16.90;99.90
1994;DHT22;998;49.906;10.908;2022-10-16T09:14:58;17.00;99.90
1994;DHT22;998;49.906;10.908;2022-10-16T09:17:39;17.00;99.90
1994;DHT22;998;49.906;10.908;2022-10-16T09:20:28;17.00;99.90
1994;DHT22;998;49.906;10.908;2022-10-16T09:23:08;17.00;99.90
1994;DHT22;998;49.906;10.908;2022-10-16T09:25:39;17.10;99.90
1994;DHT22;998;49.906;10.908;2022-10-16T09:28:08;17.00;99.90
1994;DHT22;998;49.906;10.908;2022-10-16T09:30:37;17.10;99.90
1994;DHT22;998;49.906;10.908;2022-10-16T09:33:06;17.10;99.90
1994;DHT22;998;49.906;10.908;2022-10-16T09:35:37;17.10;99.90
1994;DHT22;998;49.906;10.908;2022-10-16T09:38:06;17.10;99.90
1994;DHT22;998;49.906;10.908;2022-10-16T09:40:34;17.20;99.90
1994;DHT22;998;49.906;10.908;2022-10-16T09:43:12;17.20;99.90
1994;DHT22;998;49.906;10.908;2022-10-16T09:45:53;17.20;99.90
1994;DHT22;998;49.906;10.908;2022-10-16T09:48:22;17.20;99.90
1994;DHT22;998;49.906;10.908;2022-10-16T09:50:57;17.20;99.90
1994;DHT22;998;49.906;10.908;2022-10-16T09:53:26;17.30;99.90
1994;DHT22;998;49.906;10.908;2022-10-16T09:56:01;17.30;99.90
1994;DHT22;998;49.906;10.908;2022-10-16T09:58:31;17.30;99.90
1994;DHT22;998;49.906;10.908;2022-10-16T10:01:00;17.30;99.90
1994;DHT22;998;49.906;10.908;2022-10-16T10:03:34;17.30;99.90
1994;DHT22;998;49.906;10.908;2022-10-16T10:06:07;17.30;99.90
1994;DHT22;998;49.906;10.908;2022-10-16T10:08:51;17.40;99.90
1994;DHT22;998;49.906;10.908;2022-10-16T10:11:19;17.40;99.90
1994;DHT22;998;49.906;10.908;2022-10-16T10:14:06;17.40;99.90
1994;DHT22;998;49.906;10.908;2022-10-16T10:16:34;17.40;99.90
1994;DHT22;998;49.906;10.908;2022-10-16T10:19:02;17.40;99.90
1994;DHT22;998;49.906;10.908;2022-10-16T10:21:32;17.40;99.90
1994;DHT22;998;49.906;10.908;2022-10-16T10:23:59;17.50;99.90
1994;DHT22;998;49.906;10.908;2022-10-16T10:26:28;17.50;99.90
1994;DHT22;998;49.906;10.908;2022-10-16T10:29:03;17.50;99.90
1994;DHT22;998;49.906;10.908;2022-10-16T10:31:39;17.50;99.90
1994;DHT22;998;49.906;10.908;2022-10-16T10:34:19;17.50;99.90
1994;DHT22;998;49.906;10.908;2022-10-16T10:36:54;17.50;99.90
1994;DHT22;998;49.906;10.908;2022-10-16T10:39:27;17.50;99.90
1994;DHT22;998;49.906;10.908;2022-10-16T10:42:16;17.60;99.90
1994;DHT22;998;49.906;10.908;2022-10-16T10:45:03;17.60;99.90
1994;DHT22;998;49.906;10.908;2022-10-16T10:47:46;17.60;99.90
1994;DHT22;998;49.906;10.908;2022-10-16T10:50:19;17.70;99.90
1994;DHT22;998;49.906;10.908;2022-10-16T10:52:57;17.70;99.90
1994;DHT22;998;49.906;10.908;2022-10-16T10:55:31;17.80;99.90
1994;DHT22;998;49.906;10.908;2022-10-16T10:58:15;17.80;99.90
1994;DHT22;998;49.906;10.908;2022-10-16T11:00:53;17.80;99.90
1994;DHT22;998;49.906;10.908;2022-10-16T11:03:35;17.90;99.90
1994;DHT22;998;49.906;10.908;2022-10-16T11:06:10;17.90;99.90
1994;DHT22;998;49.906;10.908;2022-10-16T11:08:42;18.00;99.90
1994;DHT22;998;49.906;10.908;2022-10-16T11:11:14;18.10;99.90
1994;DHT22;998;49.906;10.908;2022-10-16T11:13:48;18.20;99.90
1994;DHT22;998;49.906;10.908;2022-10-16T11:16:21;18.40;99.90
1994;DHT22;998;49.906;10.908;2022-10-16T11:18:56;18.40;99.90
1994;DHT22;998;49.906;10.908;2022-10-16T11:21:26;18.40;99.90
1994;DHT22;998;49.906;10.908;2022-10-16T11:24:01;18.40;99.90
1994;DHT22;998;49.906;10.908;2022-10-16T11:26:35;18.30;99.90
1994;DHT22;998;49.906;10.908;2022-10-16T11:29:12;18.30;99.90
1994;DHT22;998;49.906;10.908;2022-10-16T11:31:47;18.20;99.90
1994;DHT22;998;49.906;10.908;2022-10-16T11:34:22;18.20;99.90
1994;DHT22;998;49.906;10.908;2022-10-16T11:36:55;18.20;99.90
1994;DHT22;998;49.906;10.908;2022-10-16T11:39:25;18.10;99.90
1994;DHT22;998;49.906;10.908;2022-10-16T11:41:55;18.10;99.90
1994;DHT22;998;49.906;10.908;2022-10-16T11:44:36;18.10;99.90
1994;DHT22;998;49.906;10.908;2022-10-16T11:47:15;18.00;99.90
1994;DHT22;998;49.906;10.908;2022-10-16T11:49:51;18.00;99.90
1994;DHT22;998;49.906;10.908;2022-10-16T11:52:25;17.90;99.90
1994;DHT22;998;49.906;10.908;2022-10-16T11:54:56;17.90;99.90
1994;DHT22;998;49.906;10.908;2022-10-16T11:57:29;17.90;99.90
1994;DHT22;998;49.906;10.908;2022-10-16T12:00:00;17.80;99.90
1994;DHT22;998;49.906;10.908;2022-10-16T12:02:49;17.90;99.90
1994;DHT22;998;49.906;10.908;2022-10-16T12:05:25;18.00;99.90
1994;DHT22;998;49.906;10.908;2022-10-16T12:08:05;18.20;99.90
1994;DHT22;998;49.906;10.908;2022-10-16T12:10:35;18.70;99.90
1994;DHT22;998;49.906;10.908;2022-10-16T12:13:04;19.90;99.90
1994;DHT22;998;49.906;10.908;2022-10-16T12:15:33;20.20;99.90
1994;DHT22;998;49.906;10.908;2022-10-16T12:18:01;20.50;99.90
1994;DHT22;998;49.906;10.908;2022-10-16T12:20:31;21.30;99.90
1994;DHT22;998;49.906;10.908;2022-10-16T12:23:00;21.90;99.90
1994;DHT22;998;49.906;10.908;2022-10-16T12:25:30;22.40;99.90
1994;DHT22;998;49.906;10.908;2022-10-16T12:27:59;22.50;99.90
1994;DHT22;998;49.906;10.908;2022-10-16T12:30:30;22.70;99.90
1994;DHT22;998;49.906;10.908;2022-10-16T12:32:59;22.80;99.90
1994;DHT22;998;49.906;10.908;2022-10-16T12:35:29;23.10;99.90
1994;DHT22;998;49.906;10.908;2022-10-16T12:38:08;23.30;99.90
1994;DHT22;998;49.906;10.908;2022-10-16T12:40:43;23.40;99.90
1994;DHT22;998;49.906;10.908;2022-10-16T12:43:13;23.50;99.90
1994;DHT22;998;49.906;10.908;2022-10-16T12:46:00;23.30;99.90
1994;DHT22;998;49.906;10.908;2022-10-16T12:48:27;23.40;99.90
1994;DHT22;998;49.906;10.908;2022-10-16T12:50:55;23.50;99.90
1994;DHT22;998;49.906;10.908;2022-10-16T12:53:25;23.70;99.90
1994;DHT22;998;49.906;10.908;2022-10-16T12:56:04;23.70;99.90
1994;DHT22;998;49.906;10.908;2022-10-16T12:58:50;23.80;99.90
1994;DHT22;998;49.906;10.908;2022-10-16T13:01:32;24.10;99.90
1994;DHT22;998;49.906;10.908;2022-10-16T13:07:21;24.30;99.90
1994;DHT22;998;49.906;10.908;2022-10-16T13:10:00;24.30;99.90
1994;DHT22;998;49.906;10.908;2022-10-16T13:12:49;24.30;99.90
1994;DHT22;998;49.906;10.908;2022-10-16T13:15:47;24.30;99.90
1994;DHT22;998;49.906;10.908;2022-10-16T13:18:22;24.20;99.90
1994;DHT22;998;49.906;10.908;2022-10-16T13:21:00;23.70;99.90
1994;DHT22;998;49.906;10.908;2022-10-16T13:23:38;23.50;99.90
1994;DHT22;998;49.906;10.908;2022-10-16T13:26:14;23.40;99.90
1994;DHT22;998;49.906;10.908;2022-10-16T13:28:44;23.50;99.90
1994;DHT22;998;49.906;10.908;2022-10-16T13:31:17;23.70;99.90
1994;DHT22;998;49.906;10.908;2022-10-16T13:33:48;23.80;99.90
1994;DHT22;998;49.906;10.908;2022-10-16T13:36:20;23.80;99.90
1994;DHT22;998;49.906;10.908;2022-10-16T13:39:10;23.60;99.90
1994;DHT22;998;49.906;10.908;2022-10-16T13:41:38;23.70;99.90
1994;DHT22;998;49.906;10.908;2022-10-16T13:44:13;23.80;99.90
1994;DHT22;998;49.906;10.908;2022-10-16T13:46:41;23.90;99.90
1994;DHT22;998;49.906;10.908;2022-10-16T13:49:13;23.90;99.90
1994;DHT22;998;49.906;10.908;2022-10-16T13:51:41;23.90;99.90
1994;DHT22;998;49.906;10.908;2022-10-16T13:54:11;23.80;99.90
1994;DHT22;998;49.906;10.908;2022-10-16T13:56:39;23.90;99.90
1994;DHT22;998;49.906;10.908;2022-10-16T13:59:23;23.90;99.90
1994;DHT22;998;49.906;10.908;2022-10-16T14:01:51;23.90;99.90
1994;DHT22;998;49.906;10.908;2022-10-16T14:04:21;23.90;99.90
1994;DHT22;998;49.906;10.908;2022-10-16T14:06:50;23.70;99.90
1994;DHT22;998;49.906;10.908;2022-10-16T14:09:23;23.70;99.90
1994;DHT22;998;49.906;10.908;2022-10-16T14:11:54;23.60;99.90
1994;DHT22;998;49.906;10.908;2022-10-16T14:14:23;23.60;99.90
1994;DHT22;998;49.906;10.908;2022-10-16T14:16:51;23.80;99.90
1994;DHT22;998;49.906;10.908;2022-10-16T14:19:21;23.70;99.90
1994;DHT22;998;49.906;10.908;2022-10-16T14:21:50;23.70;99.90
1994;DHT22;998;49.906;10.908;2022-10-16T14:24:31;23.60;99.90
1994;DHT22;998;49.906;10.908;2022-10-16T14:27:00;23.70;99.90
1994;DHT22;998;49.906;10.908;2022-10-16T14:29:29;23.80;99.90
1994;DHT22;998;49.906;10.908;2022-10-16T14:31:58;23.90;99.90
1994;DHT22;998;49.906;10.908;2022-10-16T14:34:29;23.80;99.90
1994;DHT22;998;49.906;10.908;2022-10-16T14:37:00;23.90;99.90
1994;DHT22;998;49.906;10.908;2022-10-16T14:39:34;23.90;99.90
1994;DHT22;998;49.906;10.908;2022-10-16T14:42:02;23.80;99.90
1994;DHT22;998;49.906;10.908;2022-10-16T14:44:32;23.70;99.90
1994;DHT22;998;49.906;10.908;2022-10-16T14:47:08;23.50;99.90
1994;DHT22;998;49.906;10.908;2022-10-16T14:49:36;23.30;99.90
1994;DHT22;998;49.906;10.908;2022-10-16T14:52:09;23.20;99.90
1994;DHT22;998;49.906;10.908;2022-10-16T14:54:38;23.00;99.90
1994;DHT22;998;49.906;10.908;2022-10-16T14:57:12;22.80;99.90
1994;DHT22;998;49.906;10.908;2022-10-16T14:59:43;22.60;99.90
1994;DHT22;998;49.906;10.908;2022-10-16T15:02:25;22.40;99.90
1994;DHT22;998;49.906;10.908;2022-10-16T15:04:54;22.30;99.90
1994;DHT22;998;49.906;10.908;2022-10-16T15:07:22;22.10;99.90
1994;DHT22;998;49.906;10.908;2022-10-16T15:09:51;22.00;99.90
1994;DHT22;998;49.906;10.908;2022-10-16T15:12:19;21.90;99.90
1994;DHT22;998;49.906;10.908;2022-10-16T15:14:46;21.90;99.90
1994;DHT22;998;49.906;10.908;2022-10-16T15:17:14;21.90;99.90
1994;DHT22;998;49.906;10.908;2022-10-16T15:19:41;21.90;99.90
1994;DHT22;998;49.906;10.908;2022-10-16T15:22:09;21.90;99.90
1994;DHT22;998;49.906;10.908;2022-10-16T15:24:37;21.80;99.90
1994;DHT22;998;49.906;10.908;2022-10-16T15:27:06;21.70;99.90
1994;DHT22;998;49.906;10.908;2022-10-16T15:29:34;21.70;99.90
1994;DHT22;998;49.906;10.908;2022-10-16T15:32:01;21.70;99.90
1994;DHT22;998;49.906;10.908;2022-10-16T15:34:28;21.70;99.90
1994;DHT22;998;49.906;10.908;2022-10-16T15:36:55;21.70;99.90
1994;DHT22;998;49.906;10.908;2022-10-16T15:39:23;21.60;99.90
1994;DHT22;998;49.906;10.908;2022-10-16T15:41:51;21.60;99.90
1994;DHT22;998;49.906;10.908;2022-10-16T15:44:21;21.50;99.90
1994;DHT22;998;49.906;10.908;2022-10-16T15:46:54;21.50;99.90
1994;DHT22;998;49.906;10.908;2022-10-16T15:49:22;21.50;99.90
1994;DHT22;998;49.906;10.908;2022-10-16T15:51:49;21.40;99.90
1994;DHT22;998;49.906;10.908;2022-10-16T15:54:18;21.30;99.90
1994;DHT22;998;49.906;10.908;2022-10-16T15:56:48;21.30;99.90
1994;DHT22;998;49.906;10.908;2022-10-16T15:59:15;21.30;99.90
1994;DHT22;998;49.906;10.908;2022-10-16T16:01:44;21.20;99.90
1994;DHT22;998;49.906;10.908;2022-10-16T16:04:12;21.10;99.90
1994;DHT22;998;49.906;10.908;2022-10-16T16:06:39;21.10;99.90
1994;DHT22;998;49.906;10.908;2022-10-16T16:09:10;20.90;99.90
1994;DHT22;998;49.906;10.908;2022-10-16T16:11:38;21.00;99.90
1994;DHT22;998;49.906;10.908;2022-10-16T16:14:05;20.90;99.90
1994;DHT22;998;49.906;10.908;2022-10-16T16:16:33;20.90;99.90
1994;DHT22;998;49.906;10.908;2022-10-16T16:19:04;20.80;99.90
1994;DHT22;998;49.906;10.908;2022-10-16T16:21:32;20.90;99.90
1994;DHT22;998;49.906;10.908;2022-10-16T16:24:00;20.80;99.90
1994;DHT22;998;49.906;10.908;2022-10-16T16:26:34;20.80;99.90
1994;DHT22;998;49.906;10.908;2022-10-16T16:29:04;20.80;99.90